sensor_id;sensor_type;location;lat;lon;timestamp;temperature;humidity
35603;DHT22;21725;50.836;4.368;2023-07-13T00:01:36;19.00;97.50
35603;DHT22;21725;50.836;4.368;2023-07-13T00:04:42;19.00;97.50
35603;DHT22;21725;50.836;4.368;2023-07-13T00:07:54;19.00;97.70
35603;DHT22;21725;50.836;4.368;2023-07-13T00:11:00;18.90;97.80
35603;DHT22;21725;50.836;4.368;2023-07-13T00:14:07;18.90;97.90
35603;DHT22;21725;50.836;4.368;2023-07-13T00:17:35;19.00;98.10
35603;DHT22;21725;50.836;4.368;2023-07-13T00:21:08;18.90;98.40
35603;DHT22;21725;50.836;4.368;2023-07-13T00:24:19;18.80;98.70
35603;DHT22;21725;50.836;4.368;2023-07-13T00:27:34;18.80;98.90
35603;DHT22;21725;50.836;4.368;2023-07-13T00:30:57;18.80;98.90
35603;DHT22;21725;50.836;4.368;2023-07-13T00:34:08;18.70;99.20
35603;DHT22;21725;50.836;4.368;2023-07-13T00:37:29;18.60;99.40
35603;DHT22;21725;50.836;4.368;2023-07-13T00:40:51;18.70;99.50
35603;DHT22;21725;50.836;4.368;2023-07-13T00:43:56;18.30;99.50
35603;DHT22;21725;50.836;4.368;2023-07-13T00:47:06;18.60;99.90
35603;DHT22;21725;50.836;4.368;2023-07-13T00:50:16;18.60;99.90
35603;DHT22;21725;50.836;4.368;2023-07-13T00:53:39;18.60;99.90
35603;DHT22;21725;50.836;4.368;2023-07-13T00:57:01;18.60;99.90
35603;DHT22;21725;50.836;4.368;2023-07-13T01:00:23;18.50;99.90
35603;DHT22;21725;50.836;4.368;2023-07-13T01:03:35;18.40;99.90
35603;DHT22;21725;50.836;4.368;2023-07-13T01:06:47;18.20;99.90
35603;DHT22;21725;50.836;4.368;2023-07-13T01:09:50;18.20;99.90
35603;DHT22;21725;50.836;4.368;2023-07-13T01:12:54;18.40;99.90
35603;DHT22;21725;50.836;4.368;2023-07-13T01:16:05;18.50;99.90
35603;DHT22;21725;50.836;4.368;2023-07-13T01:19:59;18.60;99.90
35603;DHT22;21725;50.836;4.368;2023-07-13T01:23:34;18.50;99.90
35603;DHT22;21725;50.836;4.368;2023-07-13T01:30:31;18.20;99.90
35603;DHT22;21725;50.836;4.368;2023-07-13T01:33:40;18.20;99.90
35603;DHT22;21725;50.836;4.368;2023-07-13T01:36:53;18.30;99.90
35603;DHT22;21725;50.836;4.368;2023-07-13T01:40:07;18.30;99.90
35603;DHT22;21725;50.836;4.368;2023-07-13T01:43:17;18.40;99.90
35603;DHT22;21725;50.836;4.368;2023-07-13T01:46:48;18.50;99.90
35603;DHT22;21725;50.836;4.368;2023-07-13T01:49:57;18.60;99.90
35603;DHT22;21725;50.836;4.368;2023-07-13T01:53:10;18.60;99.90
35603;DHT22;21725;50.836;4.368;2023-07-13T01:56:36;18.50;99.90
35603;DHT22;21725;50.836;4.368;2023-07-13T01:59:56;18.30;99.90
35603;DHT22;21725;50.836;4.368;2023-07-13T02:03:04;18.30;99.90
35603;DHT22;21725;50.836;4.368;2023-07-13T02:06:25;18.20;99.90
35603;DHT22;21725;50.836;4.368;2023-07-13T02:09:40;18.10;99.90
35603;DHT22;21725;50.836;4.368;2023-07-13T02:13:11;18.20;99.90
35603;DHT22;21725;50.836;4.368;2023-07-13T02:16:32;18.30;99.90
35603;DHT22;21725;50.836;4.368;2023-07-13T02:19:46;18.30;99.90
35603;DHT22;21725;50.836;4.368;2023-07-13T02:22:55;18.30;99.90
35603;DHT22;21725;50.836;4.368;2023-07-13T02:26:14;18.20;99.90
35603;DHT22;21725;50.836;4.368;2023-07-13T02:33:13;18.20;99.90
35603;DHT22;21725;50.836;4.368;2023-07-13T02:39:37;18.20;99.90
35603;DHT22;21725;50.836;4.368;2023-07-13T02:42:46;18.20;99.90
35603;DHT22;21725;50.836;4.368;2023-07-13T02:45:50;18.30;99.90
35603;DHT22;21725;50.836;4.368;2023-07-13T02:48:54;18.20;99.90
35603;DHT22;21725;50.836;4.368;2023-07-13T02:51:57;18.10;99.90
35603;DHT22;21725;50.836;4.368;2023-07-13T02:58:58;17.90;99.90
35603;DHT22;21725;50.836;4.368;2023-07-13T03:02:19;18.00;99.90
35603;DHT22;21725;50.836;4.368;2023-07-13T03:06:02;18.10;99.90
35603;DHT22;21725;50.836;4.368;2023-07-13T03:09:15;18.10;99.90
35603;DHT22;21725;50.836;4.368;2023-07-13T03:12:26;18.10;99.90
35603;DHT22;21725;50.836;4.368;2023-07-13T03:19:12;17.90;99.90
35603;DHT22;21725;50.836;4.368;2023-07-13T03:22:28;18.00;99.90
35603;DHT22;21725;50.836;4.368;2023-07-13T03:25:50;18.00;99.90
35603;DHT22;21725;50.836;4.368;2023-07-13T03:29:30;18.10;99.90
35603;DHT22;21725;50.836;4.368;2023-07-13T03:32:53;18.00;99.90
35603;DHT22;21725;50.836;4.368;2023-07-13T03:36:05;18.00;99.90
35603;DHT22;21725;50.836;4.368;2023-07-13T03:39:27;18.00;99.90
35603;DHT22;21725;50.836;4.368;2023-07-13T03:46:00;18.00;99.90
35603;DHT22;21725;50.836;4.368;2023-07-13T03:52:32;18.00;99.90
35603;DHT22;21725;50.836;4.368;2023-07-13T03:55:37;18.10;99.90
35603;DHT22;21725;50.836;4.368;2023-07-13T03:58:58;18.20;99.90
35603;DHT22;21725;50.836;4.368;2023-07-13T04:02:19;18.40;99.90
35603;DHT22;21725;50.836;4.368;2023-07-13T04:09:03;18.50;99.90
35603;DHT22;21725;50.836;4.368;2023-07-13T04:12:17;18.40;99.90
35603;DHT22;21725;50.836;4.368;2023-07-13T04:15:39;18.20;99.90
35603;DHT22;21725;50.836;4.368;2023-07-13T04:18:46;18.20;99.90
35603;DHT22;21725;50.836;4.368;2023-07-13T04:21:58;18.30;99.90
35603;DHT22;21725;50.836;4.368;2023-07-13T04:25:29;18.40;99.90
35603;DHT22;21725;50.836;4.368;2023-07-13T04:28:36;18.40;99.90
35603;DHT22;21725;50.836;4.368;2023-07-13T04:35:16;18.30;99.90
35603;DHT22;21725;50.836;4.368;2023-07-13T04:38:28;18.10;99.90
35603;DHT22;21725;50.836;4.368;2023-07-13T04:41:29;18.20;99.90
35603;DHT22;21725;50.836;4.368;2023-07-13T04:44:30;18.40;99.90
35603;DHT22;21725;50.836;4.368;2023-07-13T04:47:33;18.40;99.90
35603;DHT22;21725;50.836;4.368;2023-07-13T04:50:37;18.70;99.90
35603;DHT22;21725;50.836;4.368;2023-07-13T04:53:43;18.80;99.90
35603;DHT22;21725;50.836;4.368;2023-07-13T04:56:49;18.70;99.90
35603;DHT22;21725;50.836;4.368;2023-07-13T04:59:55;18.50;99.90
35603;DHT22;21725;50.836;4.368;2023-07-13T05:03:05;18.30;99.90
35603;DHT22;21725;50.836;4.368;2023-07-13T05:06:07;18.30;99.90
35603;DHT22;21725;50.836;4.368;2023-07-13T05:09:12;18.30;99.90
35603;DHT22;21725;50.836;4.368;2023-07-13T05:12:16;18.40;99.90
35603;DHT22;21725;50.836;4.368;2023-07-13T05:15:33;18.40;99.90
35603;DHT22;21725;50.836;4.368;2023-07-13T05:18:37;18.70;99.90
35603;DHT22;21725;50.836;4.368;2023-07-13T05:21:47;18.70;99.90
35603;DHT22;21725;50.836;4.368;2023-07-13T05:24:59;18.70;99.90
35603;DHT22;21725;50.836;4.368;2023-07-13T05:28:13;18.60;99.90
35603;DHT22;21725;50.836;4.368;2023-07-13T05:31:19;18.80;99.90
35603;DHT22;21725;50.836;4.368;2023-07-13T05:34:22;18.90;99.90
35603;DHT22;21725;50.836;4.368;2023-07-13T05:37:33;19.10;99.90
35603;DHT22;21725;50.836;4.368;2023-07-13T05:40:33;18.90;99.90
35603;DHT22;21725;50.836;4.368;2023-07-13T05:57:53;18.70;99.90
35603;DHT22;21725;50.836;4.368;2023-07-13T06:01:05;18.80;99.90
35603;DHT22;21725;50.836;4.368;2023-07-13T06:04:09;18.90;99.90
35603;DHT22;21725;50.836;4.368;2023-07-13T06:07:20;18.80;99.90
35603;DHT22;21725;50.836;4.368;2023-07-13T06:10:21;18.90;99.90
35603;DHT22;21725;50.836;4.368;2023-07-13T06:13:21;19.00;99.90
35603;DHT22;21725;50.836;4.368;2023-07-13T06:16:24;19.00;99.90
35603;DHT22;21725;50.836;4.368;2023-07-13T06:19:28;18.90;99.90
35603;DHT22;21725;50.836;4.368;2023-07-13T06:22:41;19.10;99.90
35603;DHT22;21725;50.836;4.368;2023-07-13T06:25:43;19.30;99.90
35603;DHT22;21725;50.836;4.368;2023-07-13T06:28:46;19.50;99.90
35603;DHT22;21725;50.836;4.368;2023-07-13T06:31:50;19.40;99.90
35603;DHT22;21725;50.836;4.368;2023-07-13T06:35:06;19.40;99.90
35603;DHT22;21725;50.836;4.368;2023-07-13T06:38:07;19.40;99.90
35603;DHT22;21725;50.836;4.368;2023-07-13T06:41:09;19.70;99.90
35603;DHT22;21725;50.836;4.368;2023-07-13T06:44:41;20.10;99.90
35603;DHT22;21725;50.836;4.368;2023-07-13T06:47:42;20.20;99.90
35603;DHT22;21725;50.836;4.368;2023-07-13T06:50:42;20.20;99.90
35603;DHT22;21725;50.836;4.368;2023-07-13T06:53:53;20.30;99.90
35603;DHT22;21725;50.836;4.368;2023-07-13T06:56:59;20.30;99.90
35603;DHT22;21725;50.836;4.368;2023-07-13T07:00:05;20.30;99.90
35603;DHT22;21725;50.836;4.368;2023-07-13T07:03:07;20.40;99.90
35603;DHT22;21725;50.836;4.368;2023-07-13T07:06:21;20.40;99.90
35603;DHT22;21725;50.836;4.368;2023-07-13T07:09:28;20.50;99.90
35603;DHT22;21725;50.836;4.368;2023-07-13T07:12:49;20.40;99.90
35603;DHT22;21725;50.836;4.368;2023-07-13T07:15:53;20.80;99.90
35603;DHT22;21725;50.836;4.368;2023-07-13T07:19:07;21.10;99.90
35603;DHT22;21725;50.836;4.368;2023-07-13T07:22:10;21.20;99.90
35603;DHT22;21725;50.836;4.368;2023-07-13T07:25:13;21.30;99.90
35603;DHT22;21725;50.836;4.368;2023-07-13T07:28:18;21.40;99.90
35603;DHT22;21725;50.836;4.368;2023-07-13T07:31:21;22.10;99.40
35603;DHT22;21725;50.836;4.368;2023-07-13T07:34:32;22.40;98.20
35603;DHT22;21725;50.836;4.368;2023-07-13T07:37:35;23.20;97.50
35603;DHT22;21725;50.836;4.368;2023-07-13T07:41:00;24.00;95.20
35603;DHT22;21725;50.836;4.368;2023-07-13T07:44:13;24.50;94.50
35603;DHT22;21725;50.836;4.368;2023-07-13T07:47:16;24.40;94.00
35603;DHT22;21725;50.836;4.368;2023-07-13T07:50:17;24.20;94.20
35603;DHT22;21725;50.836;4.368;2023-07-13T07:53:23;24.50;93.70
35603;DHT22;21725;50.836;4.368;2023-07-13T07:56:24;25.20;92.60
35603;DHT22;21725;50.836;4.368;2023-07-13T07:59:27;25.20;92.60
35603;DHT22;21725;50.836;4.368;2023-07-13T08:02:28;25.00;92.30
35603;DHT22;21725;50.836;4.368;2023-07-13T08:05:31;24.30;93.00
35603;DHT22;21725;50.836;4.368;2023-07-13T08:08:59;24.70;92.70
35603;DHT22;21725;50.836;4.368;2023-07-13T08:12:11;25.20;92.30
35603;DHT22;21725;50.836;4.368;2023-07-13T08:15:17;25.20;92.00
35603;DHT22;21725;50.836;4.368;2023-07-13T08:18:25;24.90;91.90
35603;DHT22;21725;50.836;4.368;2023-07-13T08:21:33;24.10;93.40
35603;DHT22;21725;50.836;4.368;2023-07-13T08:24:37;23.60;93.90
35603;DHT22;21725;50.836;4.368;2023-07-13T08:27:37;23.10;94.60
35603;DHT22;21725;50.836;4.368;2023-07-13T08:30:58;22.40;95.60
35603;DHT22;21725;50.836;4.368;2023-07-13T08:34:02;22.40;96.00
35603;DHT22;21725;50.836;4.368;2023-07-13T08:37:06;22.50;95.60
35603;DHT22;21725;50.836;4.368;2023-07-13T08:40:23;22.20;95.90
35603;DHT22;21725;50.836;4.368;2023-07-13T08:43:28;21.80;96.60
35603;DHT22;21725;50.836;4.368;2023-07-13T08:49:36;22.00;96.90
35603;DHT22;21725;50.836;4.368;2023-07-13T08:52:39;22.40;95.80
35603;DHT22;21725;50.836;4.368;2023-07-13T08:55:43;22.60;95.50
35603;DHT22;21725;50.836;4.368;2023-07-13T08:58:50;23.00;94.70
35603;DHT22;21725;50.836;4.368;2023-07-13T09:02:28;22.90;94.50
35603;DHT22;21725;50.836;4.368;2023-07-13T09:05:43;22.80;95.20
35603;DHT22;21725;50.836;4.368;2023-07-13T09:12:45;22.80;94.70
35603;DHT22;21725;50.836;4.368;2023-07-13T09:15:54;22.90;94.70
35603;DHT22;21725;50.836;4.368;2023-07-13T09:19:02;22.90;94.60
35603;DHT22;21725;50.836;4.368;2023-07-13T09:22:28;22.90;94.40
35603;DHT22;21725;50.836;4.368;2023-07-13T09:25:35;22.80;94.40
35603;DHT22;21725;50.836;4.368;2023-07-13T09:29:11;22.50;95.00
35603;DHT22;21725;50.836;4.368;2023-07-13T09:32:18;21.90;95.00
35603;DHT22;21725;50.836;4.368;2023-07-13T09:35:26;22.40;95.00
35603;DHT22;21725;50.836;4.368;2023-07-13T09:38:32;22.50;94.80
35603;DHT22;21725;50.836;4.368;2023-07-13T09:45:27;22.50;94.40
35603;DHT22;21725;50.836;4.368;2023-07-13T09:48:37;22.80;94.20
35603;DHT22;21725;50.836;4.368;2023-07-13T09:51:41;22.90;94.30
35603;DHT22;21725;50.836;4.368;2023-07-13T09:54:50;23.20;94.00
35603;DHT22;21725;50.836;4.368;2023-07-13T10:01:31;23.90;92.70
35603;DHT22;21725;50.836;4.368;2023-07-13T10:04:46;24.00;92.40
35603;DHT22;21725;50.836;4.368;2023-07-13T10:08:00;23.60;92.30
35603;DHT22;21725;50.836;4.368;2023-07-13T10:14:17;23.50;91.70
35603;DHT22;21725;50.836;4.368;2023-07-13T10:17:35;23.50;91.90
35603;DHT22;21725;50.836;4.368;2023-07-13T10:20:54;23.60;91.90
35603;DHT22;21725;50.836;4.368;2023-07-13T10:24:03;24.10;91.50
35603;DHT22;21725;50.836;4.368;2023-07-13T10:27:34;24.10;91.80
35603;DHT22;21725;50.836;4.368;2023-07-13T10:30:43;24.20;91.50
35603;DHT22;21725;50.836;4.368;2023-07-13T10:33:46;24.30;91.50
35603;DHT22;21725;50.836;4.368;2023-07-13T10:37:09;24.60;91.10
35603;DHT22;21725;50.836;4.368;2023-07-13T10:40:30;24.80;90.20
35603;DHT22;21725;50.836;4.368;2023-07-13T10:43:58;25.10;89.10
35603;DHT22;21725;50.836;4.368;2023-07-13T10:47:19;25.20;89.20
35603;DHT22;21725;50.836;4.368;2023-07-13T10:50:33;24.60;89.30
35603;DHT22;21725;50.836;4.368;2023-07-13T10:53:41;23.90;91.00
35603;DHT22;21725;50.836;4.368;2023-07-13T10:56:43;23.60;91.20
35603;DHT22;21725;50.836;4.368;2023-07-13T11:00:34;23.50;91.50
35603;DHT22;21725;50.836;4.368;2023-07-13T11:03:24;24.00;91.00
35603;DHT22;21725;50.836;4.368;2023-07-13T11:06:42;24.10;90.80
35603;DHT22;21725;50.836;4.368;2023-07-13T11:09:52;24.70;90.00
35603;DHT22;21725;50.836;4.368;2023-07-13T11:13:01;24.80;89.40
35603;DHT22;21725;50.836;4.368;2023-07-13T11:26:03;24.60;89.70
35603;DHT22;21725;50.836;4.368;2023-07-13T11:32:31;25.20;87.80
35603;DHT22;21725;50.836;4.368;2023-07-13T11:35:35;25.10;87.80
35603;DHT22;21725;50.836;4.368;2023-07-13T11:38:43;24.70;89.20
35603;DHT22;21725;50.836;4.368;2023-07-13T11:41:53;24.50;89.50
35603;DHT22;21725;50.836;4.368;2023-07-13T11:45:18;24.60;88.90
35603;DHT22;21725;50.836;4.368;2023-07-13T11:48:29;24.40;88.70
35603;DHT22;21725;50.836;4.368;2023-07-13T11:51:35;24.30;89.00
35603;DHT22;21725;50.836;4.368;2023-07-13T11:54:48;24.00;90.00
35603;DHT22;21725;50.836;4.368;2023-07-13T11:58:01;23.60;90.70
35603;DHT22;21725;50.836;4.368;2023-07-13T12:01:10;23.40;91.00
35603;DHT22;21725;50.836;4.368;2023-07-13T12:04:27;23.50;90.80
35603;DHT22;21725;50.836;4.368;2023-07-13T12:07:34;23.30;90.70
35603;DHT22;21725;50.836;4.368;2023-07-13T12:10:39;22.80;91.40
35603;DHT22;21725;50.836;4.368;2023-07-13T12:13:44;22.70;91.30
35603;DHT22;21725;50.836;4.368;2023-07-13T12:16:48;22.80;91.10
35603;DHT22;21725;50.836;4.368;2023-07-13T12:20:00;23.00;91.20
35603;DHT22;21725;50.836;4.368;2023-07-13T12:23:05;23.10;91.10
35603;DHT22;21725;50.836;4.368;2023-07-13T12:26:15;23.40;90.90
35603;DHT22;21725;50.836;4.368;2023-07-13T12:29:17;23.60;90.20
35603;DHT22;21725;50.836;4.368;2023-07-13T12:32:23;23.20;90.50
35603;DHT22;21725;50.836;4.368;2023-07-13T12:35:30;22.70;91.70
35603;DHT22;21725;50.836;4.368;2023-07-13T12:38:45;22.30;93.80
35603;DHT22;21725;50.836;4.368;2023-07-13T12:41:49;21.90;96.10
35603;DHT22;21725;50.836;4.368;2023-07-13T12:44:55;21.50;98.50
35603;DHT22;21725;50.836;4.368;2023-07-13T12:48:15;21.50;99.00
35603;DHT22;21725;50.836;4.368;2023-07-13T12:51:25;21.50;99.30
35603;DHT22;21725;50.836;4.368;2023-07-13T12:54:41;21.30;99.90
35603;DHT22;21725;50.836;4.368;2023-07-13T12:58:06;21.00;99.90
35603;DHT22;21725;50.836;4.368;2023-07-13T13:01:10;20.80;99.90
35603;DHT22;21725;50.836;4.368;2023-07-13T13:04:28;20.80;99.90
35603;DHT22;21725;50.836;4.368;2023-07-13T13:07:31;21.10;99.90
35603;DHT22;21725;50.836;4.368;2023-07-13T13:10:50;21.50;99.90
35603;DHT22;21725;50.836;4.368;2023-07-13T13:13:51;22.10;99.90
35603;DHT22;21725;50.836;4.368;2023-07-13T13:17:15;22.80;99.70
35603;DHT22;21725;50.836;4.368;2023-07-13T13:20:21;23.50;97.40
35603;DHT22;21725;50.836;4.368;2023-07-13T13:23:22;24.00;95.40
35603;DHT22;21725;50.836;4.368;2023-07-13T13:26:24;24.10;94.20
35603;DHT22;21725;50.836;4.368;2023-07-13T13:29:25;24.00;93.80
35603;DHT22;21725;50.836;4.368;2023-07-13T13:32:28;24.00;93.90
35603;DHT22;21725;50.836;4.368;2023-07-13T13:35:32;24.10;93.20
35603;DHT22;21725;50.836;4.368;2023-07-13T13:38:43;24.40;92.90
35603;DHT22;21725;50.836;4.368;2023-07-13T13:41:45;24.70;92.00
35603;DHT22;21725;50.836;4.368;2023-07-13T13:45:13;24.70;92.90
35603;DHT22;21725;50.836;4.368;2023-07-13T13:48:32;24.90;92.10
35603;DHT22;21725;50.836;4.368;2023-07-13T13:51:36;24.90;91.70
35603;DHT22;21725;50.836;4.368;2023-07-13T13:54:48;24.80;92.10
35603;DHT22;21725;50.836;4.368;2023-07-13T13:57:59;24.50;91.70
35603;DHT22;21725;50.836;4.368;2023-07-13T14:01:04;24.40;92.30
35603;DHT22;21725;50.836;4.368;2023-07-13T14:04:17;24.70;92.10
35603;DHT22;21725;50.836;4.368;2023-07-13T14:07:21;25.00;91.30
35603;DHT22;21725;50.836;4.368;2023-07-13T14:10:25;25.20;91.00
35603;DHT22;21725;50.836;4.368;2023-07-13T14:13:33;25.10;90.90
35603;DHT22;21725;50.836;4.368;2023-07-13T14:16:55;24.90;91.40
35603;DHT22;21725;50.836;4.368;2023-07-13T14:20:01;24.80;91.60
35603;DHT22;21725;50.836;4.368;2023-07-13T14:23:05;24.30;92.20
35603;DHT22;21725;50.836;4.368;2023-07-13T14:26:22;24.20;92.10
35603;DHT22;21725;50.836;4.368;2023-07-13T14:29:31;24.10;91.80
35603;DHT22;21725;50.836;4.368;2023-07-13T14:32:34;24.20;92.00
35603;DHT22;21725;50.836;4.368;2023-07-13T14:35:34;24.20;91.40
35603;DHT22;21725;50.836;4.368;2023-07-13T14:38:44;24.10;92.10
35603;DHT22;21725;50.836;4.368;2023-07-13T14:41:53;24.40;91.20
35603;DHT22;21725;50.836;4.368;2023-07-13T14:44:54;24.60;89.80
35603;DHT22;21725;50.836;4.368;2023-07-13T14:48:01;24.50;90.20
35603;DHT22;21725;50.836;4.368;2023-07-13T14:54:27;24.80;90.00
35603;DHT22;21725;50.836;4.368;2023-07-13T14:57:38;25.10;90.00
35603;DHT22;21725;50.836;4.368;2023-07-13T15:00:42;24.90;90.00
35603;DHT22;21725;50.836;4.368;2023-07-13T15:03:46;24.90;90.20
35603;DHT22;21725;50.836;4.368;2023-07-13T15:07:02;24.90;90.30
35603;DHT22;21725;50.836;4.368;2023-07-13T15:10:16;24.90;89.80
35603;DHT22;21725;50.836;4.368;2023-07-13T15:13:35;25.00;89.50
35603;DHT22;21725;50.836;4.368;2023-07-13T15:16:42;25.20;89.20
35603;DHT22;21725;50.836;4.368;2023-07-13T15:19:50;25.20;88.40
35603;DHT22;21725;50.836;4.368;2023-07-13T15:22:56;25.30;87.50
35603;DHT22;21725;50.836;4.368;2023-07-13T15:25:57;25.50;87.10
35603;DHT22;21725;50.836;4.368;2023-07-13T15:29:07;25.40;84.80
35603;DHT22;21725;50.836;4.368;2023-07-13T15:32:12;25.00;85.00
35603;DHT22;21725;50.836;4.368;2023-07-13T15:35:26;24.60;86.10
35603;DHT22;21725;50.836;4.368;2023-07-13T15:38:36;24.60;86.10
35603;DHT22;21725;50.836;4.368;2023-07-13T15:42:00;24.60;86.60
35603;DHT22;21725;50.836;4.368;2023-07-13T15:45:09;24.80;86.10
35603;DHT22;21725;50.836;4.368;2023-07-13T15:48:35;25.00;86.40
35603;DHT22;21725;50.836;4.368;2023-07-13T15:51:36;25.10;86.40
35603;DHT22;21725;50.836;4.368;2023-07-13T15:54:42;25.20;85.90
35603;DHT22;21725;50.836;4.368;2023-07-13T15:58:03;25.20;85.00
35603;DHT22;21725;50.836;4.368;2023-07-13T16:01:24;25.10;85.50
35603;DHT22;21725;50.836;4.368;2023-07-13T16:04:25;25.10;84.00
35603;DHT22;21725;50.836;4.368;2023-07-13T16:07:35;25.20;83.60
35603;DHT22;21725;50.836;4.368;2023-07-13T16:10:38;25.50;82.70
35603;DHT22;21725;50.836;4.368;2023-07-13T16:13:41;25.60;80.80
35603;DHT22;21725;50.836;4.368;2023-07-13T16:16:53;25.40;81.00
35603;DHT22;21725;50.836;4.368;2023-07-13T16:19:57;25.10;81.80
35603;DHT22;21725;50.836;4.368;2023-07-13T16:22:59;25.10;82.80
35603;DHT22;21725;50.836;4.368;2023-07-13T16:26:27;25.30;84.30
35603;DHT22;21725;50.836;4.368;2023-07-13T16:29:31;25.30;84.00
35603;DHT22;21725;50.836;4.368;2023-07-13T16:32:32;25.50;81.50
35603;DHT22;21725;50.836;4.368;2023-07-13T16:35:38;25.50;80.30
35603;DHT22;21725;50.836;4.368;2023-07-13T16:38:49;25.30;80.40
35603;DHT22;21725;50.836;4.368;2023-07-13T16:41:54;25.40;80.30
35603;DHT22;21725;50.836;4.368;2023-07-13T16:45:00;25.60;79.40
35603;DHT22;21725;50.836;4.368;2023-07-13T16:48:23;25.80;78.70
35603;DHT22;21725;50.836;4.368;2023-07-13T16:51:42;25.70;78.70
35603;DHT22;21725;50.836;4.368;2023-07-13T16:54:43;25.80;78.60
35603;DHT22;21725;50.836;4.368;2023-07-13T16:58:04;25.70;78.90
35603;DHT22;21725;50.836;4.368;2023-07-13T17:01:07;25.60;78.80
35603;DHT22;21725;50.836;4.368;2023-07-13T17:04:29;25.50;78.30
35603;DHT22;21725;50.836;4.368;2023-07-13T17:07:34;25.70;79.10
35603;DHT22;21725;50.836;4.368;2023-07-13T17:10:35;25.70;78.40
35603;DHT22;21725;50.836;4.368;2023-07-13T17:13:39;25.50;78.10
35603;DHT22;21725;50.836;4.368;2023-07-13T17:16:55;25.30;78.60
35603;DHT22;21725;50.836;4.368;2023-07-13T17:19:59;25.00;79.30
35603;DHT22;21725;50.836;4.368;2023-07-13T17:23:20;25.10;79.10
35603;DHT22;21725;50.836;4.368;2023-07-13T17:26:24;25.10;79.40
35603;DHT22;21725;50.836;4.368;2023-07-13T17:29:34;25.10;79.20
35603;DHT22;21725;50.836;4.368;2023-07-13T17:32:49;25.00;79.70
35603;DHT22;21725;50.836;4.368;2023-07-13T17:35:51;24.90;79.80
35603;DHT22;21725;50.836;4.368;2023-07-13T17:38:55;25.10;79.70
35603;DHT22;21725;50.836;4.368;2023-07-13T17:42:19;25.20;79.40
35603;DHT22;21725;50.836;4.368;2023-07-13T17:45:27;25.20;79.20
35603;DHT22;21725;50.836;4.368;2023-07-13T17:48:31;25.30;79.10
35603;DHT22;21725;50.836;4.368;2023-07-13T17:51:32;25.50;77.60
35603;DHT22;21725;50.836;4.368;2023-07-13T17:54:42;25.20;76.90
35603;DHT22;21725;50.836;4.368;2023-07-13T17:57:46;24.90;77.50
35603;DHT22;21725;50.836;4.368;2023-07-13T18:00:57;24.80;78.40
35603;DHT22;21725;50.836;4.368;2023-07-13T18:04:02;24.80;78.90
35603;DHT22;21725;50.836;4.368;2023-07-13T18:07:11;24.70;79.00
35603;DHT22;21725;50.836;4.368;2023-07-13T18:10:17;24.80;78.70
35603;DHT22;21725;50.836;4.368;2023-07-13T18:13:26;24.70;78.70
35603;DHT22;21725;50.836;4.368;2023-07-13T18:16:32;24.80;78.60
35603;DHT22;21725;50.836;4.368;2023-07-13T18:19:43;24.80;78.70
35603;DHT22;21725;50.836;4.368;2023-07-13T18:22:45;24.80;79.10
35603;DHT22;21725;50.836;4.368;2023-07-13T18:25:46;24.90;79.00
35603;DHT22;21725;50.836;4.368;2023-07-13T18:28:53;24.80;79.20
35603;DHT22;21725;50.836;4.368;2023-07-13T18:31:54;24.60;79.50
35603;DHT22;21725;50.836;4.368;2023-07-13T18:35:17;24.50;79.70
35603;DHT22;21725;50.836;4.368;2023-07-13T18:38:24;24.60;79.90
35603;DHT22;21725;50.836;4.368;2023-07-13T18:41:30;24.60;79.80
35603;DHT22;21725;50.836;4.368;2023-07-13T19:06:30;23.50;83.60
35603;DHT22;21725;50.836;4.368;2023-07-13T19:09:36;23.50;83.90
35603;DHT22;21725;50.836;4.368;2023-07-13T19:12:41;23.50;84.20
35603;DHT22;21725;50.836;4.368;2023-07-13T19:15:55;23.60;83.80
35603;DHT22;21725;50.836;4.368;2023-07-13T19:19:14;23.50;84.30
35603;DHT22;21725;50.836;4.368;2023-07-13T19:22:19;23.50;84.30
35603;DHT22;21725;50.836;4.368;2023-07-13T19:25:23;23.50;84.40
35603;DHT22;21725;50.836;4.368;2023-07-13T19:32:09;23.20;85.60
35603;DHT22;21725;50.836;4.368;2023-07-13T19:35:21;23.00;85.60
35603;DHT22;21725;50.836;4.368;2023-07-13T19:38:32;23.10;86.10
35603;DHT22;21725;50.836;4.368;2023-07-13T19:41:36;23.10;86.40
35603;DHT22;21725;50.836;4.368;2023-07-13T19:44:53;23.30;86.20
35603;DHT22;21725;50.836;4.368;2023-07-13T19:47:56;23.20;86.30
35603;DHT22;21725;50.836;4.368;2023-07-13T19:50:57;23.20;86.30
35603;DHT22;21725;50.836;4.368;2023-07-13T19:54:15;23.10;86.80
35603;DHT22;21725;50.836;4.368;2023-07-13T19:57:23;23.10;87.10
35603;DHT22;21725;50.836;4.368;2023-07-13T20:01:00;22.90;87.50
35603;DHT22;21725;50.836;4.368;2023-07-13T20:04:03;22.90;87.50
35603;DHT22;21725;50.836;4.368;2023-07-13T20:07:13;22.90;87.30
35603;DHT22;21725;50.836;4.368;2023-07-13T20:10:34;22.90;87.20
35603;DHT22;21725;50.836;4.368;2023-07-13T20:13:46;23.00;87.30
35603;DHT22;21725;50.836;4.368;2023-07-13T20:16:59;22.90;87.60
35603;DHT22;21725;50.836;4.368;2023-07-13T20:23:20;22.70;88.60
35603;DHT22;21725;50.836;4.368;2023-07-13T20:26:31;22.70;88.80
35603;DHT22;21725;50.836;4.368;2023-07-13T20:29:41;22.80;88.80
35603;DHT22;21725;50.836;4.368;2023-07-13T20:33:04;22.90;88.50
35603;DHT22;21725;50.836;4.368;2023-07-13T20:36:13;22.60;88.80
35603;DHT22;21725;50.836;4.368;2023-07-13T20:39:35;22.40;89.70
35603;DHT22;21725;50.836;4.368;2023-07-13T20:42:38;22.30;90.00
35603;DHT22;21725;50.836;4.368;2023-07-13T20:45:42;22.40;89.90
35603;DHT22;21725;50.836;4.368;2023-07-13T20:48:51;22.40;89.90
35603;DHT22;21725;50.836;4.368;2023-07-13T20:51:54;22.20;90.30
35603;DHT22;21725;50.836;4.368;2023-07-13T20:55:11;22.20;90.50
35603;DHT22;21725;50.836;4.368;2023-07-13T20:58:24;22.20;90.50
35603;DHT22;21725;50.836;4.368;2023-07-13T21:01:35;22.20;90.50
35603;DHT22;21725;50.836;4.368;2023-07-13T21:04:45;22.30;90.40
35603;DHT22;21725;50.836;4.368;2023-07-13T21:07:50;22.10;90.40
35603;DHT22;21725;50.836;4.368;2023-07-13T21:11:04;22.20;90.60
35603;DHT22;21725;50.836;4.368;2023-07-13T21:14:34;22.10;90.70
35603;DHT22;21725;50.836;4.368;2023-07-13T21:18:03;22.10;90.80
35603;DHT22;21725;50.836;4.368;2023-07-13T21:21:14;22.00;90.80
35603;DHT22;21725;50.836;4.368;2023-07-13T21:24:15;22.20;90.70
35603;DHT22;21725;50.836;4.368;2023-07-13T21:27:16;22.20;90.60
35603;DHT22;21725;50.836;4.368;2023-07-13T21:30:24;22.10;90.80
35603;DHT22;21725;50.836;4.368;2023-07-13T21:33:40;21.90;91.00
35603;DHT22;21725;50.836;4.368;2023-07-13T21:36:43;22.10;91.00
35603;DHT22;21725;50.836;4.368;2023-07-13T21:39:51;22.00;91.10
35603;DHT22;21725;50.836;4.368;2023-07-13T21:42:55;21.90;91.20
35603;DHT22;21725;50.836;4.368;2023-07-13T21:45:56;21.90;91.30
35603;DHT22;21725;50.836;4.368;2023-07-13T21:49:08;21.90;91.20
35603;DHT22;21725;50.836;4.368;2023-07-13T21:52:21;21.80;91.30